Hauptseite
METAR-TAF:

METAR-TAF

Flughäfen :

Bradford, Pennsylvania, Vereinigte Staaten

Breite: 41-47-55N, Länge: 078-38-09W, Höhe: 653 m

Beobachtung

Neuester Wetterbericht von vor 17 Minuten, um 09:53 UTC
Windstille
Temperatur 15°C
Luftfeuchtigkeit 88%
Luftdruck 1022 hPa
Sichtweite: 12.9 km
Himmel klar

METAR: KBFD 270953Z AUTO 00000KT 8SM CLR 15/13 A3019 RMK AO2 SLP208 T01500133

Zeit: 06:10 (10:10 UTC)

Prognose

Neuester Wetterbericht von vor 1 Stunde und 6 Minuten, um 09:04 UTC
Gültige Prognose vom 27 um 09 UTC bis 28 um 06 UTC
Wind 5 kt aus Süd
Sichtweite: 10 km
Himmel klar
Ab 27 um 1300 UTC
Wind 7 kt aus Süd/Südost
Sichtweite: 10 km
Aufgelockert bewölkt in der Höhe von 25000 ft

TAF: KBFD 270904Z 2709/2806 17005KT P6SM SKC FM271300 16007KT P6SM SCT250

Wetterbeobachtungen und Prognosen von mehr als 4000 Flughäfen (METAR und TAF Bericht).

Die verfügbaren Stationen werden durch gelbe und rote Markierungen auf der Karte dargestellt.

Führen Sie die Maus auf sie, um den Namen der Station zu sehen.

Darauf klicken, um die Beobachtung von Wetterbeobachtungen und Prognosen zu sehen.

Um die Karte zu ändern : klicken Sie auf den grünen Tasten mit einem schwarzen Kreuz Zum Vergrößern, auf den grünen Button mit einem Gedankenstrich zu verkleinern, oder auf die grünen Pfeile für benachbarte Karten.


METAR-TAF: